createdAt,value
2022-09-27T00:03:42.649Z,1005.9
2022-09-27T00:08:42.367Z,1005.9
2022-09-27T00:13:42.345Z,1005.8
2022-09-27T00:18:42.718Z,1005.7
2022-09-27T00:23:42.515Z,1005.7
2022-09-27T00:28:42.353Z,1005.5
2022-09-27T00:33:42.204Z,1005.5
2022-09-27T00:38:42.351Z,1005.4
2022-09-27T00:43:42.517Z,1005.4
2022-09-27T00:48:42.499Z,1005.4
2022-09-27T00:53:42.239Z,1005.3
2022-09-27T00:58:42.311Z,1005.3
2022-09-27T01:03:42.593Z,1005.2
2022-09-27T01:08:42.352Z,1005.2
2022-09-27T01:13:42.165Z,1005.2
2022-09-27T01:18:42.513Z,1005.1
2022-09-27T01:23:42.300Z,1005.1
2022-09-27T01:28:42.265Z,1005.0
2022-09-27T01:33:42.210Z,1005.0
2022-09-27T01:38:42.106Z,1004.8
2022-09-27T01:43:42.269Z,1004.7
2022-09-27T01:48:42.297Z,1004.6
2022-09-27T01:53:42.157Z,1004.6
2022-09-27T01:58:42.068Z,1004.5
2022-09-27T02:03:42.256Z,1004.4
2022-09-27T02:08:42.175Z,1004.4
2022-09-27T02:13:42.074Z,1004.3
2022-09-27T02:18:42.348Z,1004.3
2022-09-27T02:23:42.223Z,1004.3
2022-09-27T02:28:42.251Z,1004.2
2022-09-27T02:33:42.220Z,1004.1
2022-09-27T02:38:42.067Z,1004.0
2022-09-27T02:43:42.085Z,1004.1
2022-09-27T02:48:42.127Z,1004.0
2022-09-27T02:53:42.024Z,1004.0
2022-09-27T02:58:42.038Z,1003.9
2022-09-27T03:03:42.122Z,1003.9
2022-09-27T03:08:42.014Z,1003.8
2022-09-27T03:14:01.864Z,1003.6
2022-09-27T03:18:42.472Z,1003.5
2022-09-27T03:23:42.115Z,1003.6
2022-09-27T03:28:42.318Z,1003.7
2022-09-27T03:33:41.990Z,1003.6
2022-09-27T03:38:42.002Z,1003.6
2022-09-27T03:43:41.985Z,1003.6
2022-09-27T03:48:42.137Z,1003.7
2022-09-27T03:53:42.056Z,1003.7
2022-09-27T03:58:42.056Z,1003.7
2022-09-27T04:03:42.164Z,1003.5
2022-09-27T04:08:41.992Z,1003.6
2022-09-27T04:13:42.103Z,1003.4
2022-09-27T04:18:42.023Z,1003.5
2022-09-27T04:23:41.983Z,1003.4
2022-09-27T04:28:41.797Z,1003.4
2022-09-27T04:33:42.033Z,1003.3
2022-09-27T04:38:41.916Z,1003.3
2022-09-27T04:43:41.917Z,1003.4
2022-09-27T04:48:42.001Z,1003.4
2022-09-27T04:53:41.964Z,1003.4
2022-09-27T04:58:41.891Z,1003.3
2022-09-27T05:03:41.845Z,1003.3
2022-09-27T05:08:41.872Z,1003.3
2022-09-27T05:13:41.826Z,1003.2
2022-09-27T05:18:41.977Z,1003.1
2022-09-27T05:23:44.702Z,1003.0
2022-09-27T05:28:41.795Z,1003.1
2022-09-27T05:33:41.942Z,1003.2
2022-09-27T05:38:41.833Z,1003.1
2022-09-27T05:43:41.715Z,1003.0
2022-09-27T05:48:42.146Z,1002.9
2022-09-27T05:53:41.881Z,1002.9
2022-09-27T05:58:41.664Z,1002.9
2022-09-27T06:03:42.053Z,1002.8
2022-09-27T06:08:41.965Z,1002.9
2022-09-27T06:13:41.815Z,1002.8
2022-09-27T06:18:41.591Z,1003.0
2022-09-27T06:23:41.702Z,1002.8
2022-09-27T06:28:41.733Z,1002.9
2022-09-27T06:33:41.669Z,1002.9
2022-09-27T06:38:41.964Z,1002.7
2022-09-27T06:43:41.640Z,1002.8
2022-09-27T06:48:41.811Z,1002.9
2022-09-27T06:53:41.869Z,1002.8
2022-09-27T06:58:41.814Z,1002.9
2022-09-27T07:03:41.576Z,1002.9
2022-09-27T07:08:41.613Z,1002.8
2022-09-27T07:13:41.763Z,1002.9
2022-09-27T07:18:41.589Z,1002.9
2022-09-27T07:23:41.551Z,1002.8
2022-09-27T07:28:41.652Z,1002.8
2022-09-27T07:33:43.524Z,1002.7
2022-09-27T07:38:41.730Z,1002.6
2022-09-27T07:43:41.446Z,1002.6
2022-09-27T07:48:41.609Z,1002.7
2022-09-27T07:53:41.715Z,1002.7
2022-09-27T07:58:41.626Z,1002.7
2022-09-27T08:03:42.113Z,1002.6
2022-09-27T08:08:41.716Z,1002.6
2022-09-27T08:13:41.809Z,1002.5
2022-09-27T08:18:41.562Z,1002.4
2022-09-27T08:23:41.383Z,1002.4
2022-09-27T08:28:41.630Z,1002.4
2022-09-27T08:33:41.866Z,1002.4
2022-09-27T08:38:42.094Z,1002.3
2022-09-27T08:43:41.492Z,1002.2
2022-09-27T08:48:41.636Z,1002.2
2022-09-27T08:53:41.685Z,1002.1
2022-09-27T08:58:41.383Z,1002.1
2022-09-27T09:03:41.490Z,1002.1
2022-09-27T09:08:44.382Z,1002.1
2022-09-27T09:13:41.528Z,1002.1
2022-09-27T09:18:41.274Z,1002.1
2022-09-27T09:23:41.590Z,1001.9
2022-09-27T09:28:41.458Z,1001.9
2022-09-27T09:33:41.407Z,1001.8
2022-09-27T09:38:41.488Z,1001.8
2022-09-27T09:43:41.468Z,1001.7
2022-09-27T09:48:41.376Z,1001.7
2022-09-27T09:53:41.480Z,1001.6
2022-09-27T09:58:41.248Z,1001.5
2022-09-27T10:03:41.293Z,1001.4
2022-09-27T10:08:41.455Z,1001.3
2022-09-27T10:13:41.303Z,1001.2
2022-09-27T10:18:42.568Z,1001.3
2022-09-27T10:23:41.384Z,1001.1
2022-09-27T10:28:41.251Z,1001.0
2022-09-27T10:33:41.329Z,1001.0
2022-09-27T10:38:41.372Z,1000.9
2022-09-27T10:43:41.230Z,1000.9
2022-09-27T10:48:41.340Z,1001.0
2022-09-27T10:53:41.394Z,1000.8
2022-09-27T10:58:41.292Z,1000.9
2022-09-27T11:03:41.203Z,1000.7
2022-09-27T11:08:41.377Z,1000.7
2022-09-27T11:13:41.181Z,1000.6
2022-09-27T11:18:41.196Z,1000.6
2022-09-27T11:23:41.341Z,1000.6
2022-09-27T11:28:41.279Z,1000.6
2022-09-27T11:33:41.201Z,1000.6
2022-09-27T11:38:52.595Z,1000.5
2022-09-27T11:43:41.196Z,1000.4
2022-09-27T11:48:41.178Z,1000.3
2022-09-27T11:53:41.401Z,1000.3
2022-09-27T11:58:41.308Z,1000.2
2022-09-27T12:03:41.158Z,1000.3
2022-09-27T12:08:42.159Z,1000.2
2022-09-27T12:13:41.292Z,1000.2
2022-09-27T12:18:41.102Z,1000.2
2022-09-27T12:23:41.158Z,1000.2
2022-09-27T12:28:41.147Z,1000.2
2022-09-27T12:33:41.108Z,1000.1
2022-09-27T12:38:41.609Z,1000.0
2022-09-27T12:43:42.172Z,1000.0
2022-09-27T12:48:41.321Z,999.9
2022-09-27T12:53:41.373Z,999.8
2022-09-27T12:58:41.110Z,999.8
2022-09-27T13:03:41.069Z,999.8
2022-09-27T13:08:41.457Z,999.7
2022-09-27T13:13:41.460Z,999.7
2022-09-27T13:18:41.075Z,999.8
2022-09-27T13:23:41.224Z,999.9
2022-09-27T13:28:41.046Z,1000.1
2022-09-27T13:33:41.292Z,1000.0
2022-09-27T13:38:41.317Z,1000.0
2022-09-27T13:43:40.980Z,999.8
2022-09-27T13:48:41.205Z,999.9
2022-09-27T13:53:41.221Z,1000.1
2022-09-27T13:58:41.070Z,1000.1
2022-09-27T14:03:40.875Z,1000.2
2022-09-27T14:08:41.200Z,1000.2
2022-09-27T14:13:41.210Z,1000.3
2022-09-27T14:18:40.972Z,1000.2
2022-09-27T14:23:40.888Z,1000.2
2022-09-27T14:28:40.962Z,1000.1
2022-09-27T14:33:40.984Z,1000.3
2022-09-27T14:38:41.434Z,1000.2
2022-09-27T14:43:40.851Z,1000.2
2022-09-27T14:48:40.986Z,1000.3
2022-09-27T14:53:41.105Z,1000.3
2022-09-27T14:58:47.523Z,1000.4
2022-09-27T15:03:44.189Z,1000.4
2022-09-27T15:08:41.053Z,1000.6
2022-09-27T15:13:40.910Z,1000.7
2022-09-27T15:18:40.915Z,1000.8
2022-09-27T15:23:40.975Z,1000.8
2022-09-27T15:28:40.913Z,1000.8
2022-09-27T15:33:40.980Z,1000.9
2022-09-27T15:38:41.023Z,1000.8
2022-09-27T15:43:40.804Z,1000.7
2022-09-27T15:48:40.852Z,1000.7
2022-09-27T15:53:40.941Z,1000.7
2022-09-27T15:58:40.811Z,1000.7
2022-09-27T16:03:40.821Z,1000.5
2022-09-27T16:08:40.927Z,1000.6
2022-09-27T16:13:41.037Z,1000.6
2022-09-27T16:18:40.710Z,1000.8
2022-09-27T16:23:40.738Z,1000.8
2022-09-27T16:28:40.766Z,1000.8
2022-09-27T16:33:40.912Z,1001.0
2022-09-27T16:38:40.614Z,1000.9
2022-09-27T16:43:40.710Z,1000.9
2022-09-27T16:48:40.703Z,1001.2
2022-09-27T16:53:40.876Z,1001.2
2022-09-27T16:58:40.614Z,1001.1
2022-09-27T17:03:40.680Z,1001.2
2022-09-27T17:08:40.791Z,1001.1
2022-09-27T17:13:40.643Z,1001.2
2022-09-27T17:18:40.644Z,1001.2
2022-09-27T17:23:49.128Z,1001.5
2022-09-27T17:28:40.567Z,1001.4
2022-09-27T17:33:40.709Z,1001.2
2022-09-27T17:38:40.655Z,1001.3
2022-09-27T17:43:40.679Z,1001.3
2022-09-27T17:48:41.749Z,1001.4
2022-09-27T17:53:40.764Z,1001.5
2022-09-27T17:58:40.586Z,1001.5
2022-09-27T18:03:41.054Z,1001.5
2022-09-27T18:08:40.708Z,1001.5
2022-09-27T18:13:40.501Z,1001.5
2022-09-27T18:18:41.040Z,1001.5
2022-09-27T18:23:40.575Z,1001.5
2022-09-27T18:28:40.570Z,1001.4
2022-09-27T18:33:40.715Z,1001.5
2022-09-27T18:38:40.512Z,1001.6
2022-09-27T18:43:40.548Z,1001.4
2022-09-27T18:48:40.428Z,1001.5
2022-09-27T18:53:40.690Z,1001.6
2022-09-27T18:58:40.470Z,1001.6
2022-09-27T19:03:40.714Z,1001.6
2022-09-27T19:08:40.660Z,1001.7
2022-09-27T19:13:50.210Z,1001.6
2022-09-27T19:18:40.831Z,1001.6
2022-09-27T19:23:40.807Z,1001.6
2022-09-27T19:28:40.682Z,1001.7
2022-09-27T19:33:40.436Z,1001.6
2022-09-27T19:38:40.654Z,1001.7
2022-09-27T19:43:40.681Z,1001.6
2022-09-27T19:48:40.842Z,1001.7
2022-09-27T19:53:40.547Z,1001.5
2022-09-27T19:58:40.597Z,1001.5
2022-09-27T20:03:40.519Z,1001.4
2022-09-27T20:08:40.406Z,1001.5
2022-09-27T20:13:40.373Z,1001.6
2022-09-27T20:18:40.414Z,1001.5
2022-09-27T20:23:40.542Z,1001.5
2022-09-27T20:28:40.442Z,1001.6
2022-09-27T20:33:40.416Z,1001.6
2022-09-27T20:38:40.562Z,1001.6
2022-09-27T20:43:40.347Z,1001.6
2022-09-27T20:48:40.349Z,1001.7
2022-09-27T20:53:40.434Z,1001.8
2022-09-27T20:58:40.279Z,1001.8
2022-09-27T21:03:40.280Z,1001.7
2022-09-27T21:08:40.411Z,1001.8
2022-09-27T21:13:40.292Z,1001.8
2022-09-27T21:18:40.220Z,1001.9
2022-09-27T21:23:44.368Z,1001.8
2022-09-27T21:28:40.192Z,1001.8
2022-09-27T21:33:40.209Z,1001.8
2022-09-27T21:38:40.243Z,1001.7
2022-09-27T21:43:40.178Z,1001.7
2022-09-27T21:48:40.132Z,1001.8
2022-09-27T21:53:40.280Z,1001.9
2022-09-27T21:58:40.187Z,1001.9
2022-09-27T22:03:50.934Z,1001.9
2022-09-27T22:08:40.278Z,1002.0
2022-09-27T22:13:40.321Z,1002.1
2022-09-27T22:18:40.100Z,1001.9
2022-09-27T22:23:40.093Z,1001.9
2022-09-27T22:28:40.072Z,1001.9
2022-09-27T22:33:40.075Z,1002.0
2022-09-27T22:38:40.204Z,1002.0
2022-09-27T22:43:40.096Z,1002.0
2022-09-27T22:48:40.065Z,1001.9
2022-09-27T22:53:40.315Z,1002.0
2022-09-27T22:58:40.147Z,1001.9
2022-09-27T23:03:40.093Z,1002.0
2022-09-27T23:08:40.183Z,1002.0
2022-09-27T23:13:40.332Z,1001.9
2022-09-27T23:18:39.973Z,1001.9
2022-09-27T23:23:40.787Z,1001.8
2022-09-27T23:28:39.916Z,1001.8
2022-09-27T23:33:40.090Z,1001.9
2022-09-27T23:38:40.112Z,1001.9
2022-09-27T23:43:39.939Z,1001.9
2022-09-27T23:48:40.045Z,1001.8
2022-09-27T23:53:40.336Z,1001.8
2022-09-27T23:58:39.904Z,1001.7
